createdAt,value
2016-11-26T00:00:27.506Z,0
2016-11-26T00:01:26.819Z,0
2016-11-26T00:02:26.609Z,0
2016-11-26T00:03:26.592Z,0
2016-11-26T00:04:26.717Z,0
2016-11-26T00:05:26.439Z,0
2016-11-26T00:06:28.546Z,0
2016-11-26T00:07:28.677Z,0
2016-11-26T00:08:26.791Z,0
2016-11-26T00:09:27.695Z,0
2016-11-26T00:10:26.857Z,0
2016-11-26T00:11:28.118Z,0
2016-11-26T00:12:28.100Z,0
2016-11-26T00:13:26.804Z,0
2016-11-26T00:14:27.440Z,0
2016-11-26T00:15:27.110Z,0
2016-11-26T00:16:27.374Z,0
2016-11-26T00:17:26.502Z,0
2016-11-26T00:18:27.387Z,0
2016-11-26T00:19:26.420Z,0
2016-11-26T00:20:26.412Z,0
2016-11-26T00:21:26.463Z,0
2016-11-26T00:22:26.843Z,0
2016-11-26T00:23:27.086Z,0
2016-11-26T00:24:26.953Z,0
2016-11-26T00:25:27.327Z,0
2016-11-26T00:26:26.957Z,0
2016-11-26T00:27:27.724Z,0
2016-11-26T00:28:27.544Z,0
2016-11-26T00:29:26.379Z,0
2016-11-26T00:30:26.894Z,0
2016-11-26T00:31:26.882Z,0
2016-11-26T00:32:26.670Z,0
2016-11-26T00:33:26.807Z,0
2016-11-26T00:34:27.200Z,0
2016-11-26T00:35:26.540Z,0
2016-11-26T00:36:26.304Z,0
2016-11-26T00:37:26.612Z,0
2016-11-26T00:38:26.711Z,0
2016-11-26T00:39:26.567Z,0
2016-11-26T00:40:27.787Z,0
2016-11-26T00:41:26.669Z,0
2016-11-26T00:42:27.137Z,0
2016-11-26T00:43:27.866Z,0
2016-11-26T00:44:27.465Z,0
2016-11-26T00:45:26.558Z,0
2016-11-26T00:46:26.966Z,0
2016-11-26T00:47:27.377Z,0
2016-11-26T00:48:26.971Z,0
2016-11-26T00:49:27.027Z,0
2016-11-26T00:50:27.038Z,0
2016-11-26T00:51:27.284Z,0
2016-11-26T00:52:26.288Z,0
2016-11-26T00:53:27.359Z,0
2016-11-26T00:54:26.740Z,0
2016-11-26T00:55:28.040Z,0
2016-11-26T00:56:27.219Z,0
2016-11-26T00:57:26.828Z,0
2016-11-26T00:58:26.820Z,0
2016-11-26T00:59:26.604Z,0
2016-11-26T01:00:27.256Z,0
2016-11-26T01:01:27.719Z,0
2016-11-26T01:02:26.638Z,0
2016-11-26T01:03:27.537Z,0
2016-11-26T01:04:26.758Z,0
2016-11-26T01:05:27.026Z,0
2016-11-26T01:06:28.082Z,0
2016-11-26T01:07:26.546Z,0
2016-11-26T01:08:26.895Z,0
2016-11-26T01:09:27.448Z,0
2016-11-26T01:10:27.900Z,0
2016-11-26T01:11:26.763Z,0
2016-11-26T01:12:27.830Z,0
2016-11-26T01:13:27.906Z,0
2016-11-26T01:14:26.820Z,0
2016-11-26T01:15:28.348Z,0
2016-11-26T01:16:26.538Z,0
2016-11-26T01:17:27.236Z,0
2016-11-26T01:18:27.243Z,0
2016-11-26T01:19:27.084Z,0
2016-11-26T01:20:27.443Z,0
2016-11-26T01:21:27.570Z,0
2016-11-26T01:22:27.742Z,0
2016-11-26T01:23:28.118Z,0
2016-11-26T01:24:27.731Z,0
2016-11-26T01:25:27.096Z,0
2016-11-26T01:26:27.657Z,0
2016-11-26T01:27:27.224Z,0
2016-11-26T01:28:28.367Z,0
2016-11-26T01:29:28.262Z,0
2016-11-26T01:30:27.423Z,0
2016-11-26T01:31:27.480Z,0
2016-11-26T01:32:27.276Z,0
2016-11-26T01:33:27.998Z,0
2016-11-26T01:34:27.626Z,0
2016-11-26T01:35:27.711Z,0
2016-11-26T01:36:28.345Z,0
2016-11-26T01:37:28.358Z,0
2016-11-26T01:38:28.315Z,0
2016-11-26T01:39:27.534Z,0
2016-11-26T01:40:27.430Z,0
2016-11-26T01:41:28.221Z,0
2016-11-26T01:42:28.163Z,0
2016-11-26T01:43:27.671Z,0
2016-11-26T01:44:27.681Z,0
2016-11-26T01:45:27.581Z,0
2016-11-26T01:46:27.635Z,0
2016-11-26T01:47:27.035Z,0
2016-11-26T01:48:28.525Z,0
2016-11-26T01:49:27.410Z,0
2016-11-26T01:50:27.434Z,0
2016-11-26T01:51:27.730Z,0
2016-11-26T01:52:26.999Z,0
2016-11-26T01:53:27.604Z,0
2016-11-26T01:54:29.165Z,0
2016-11-26T01:55:29.073Z,0
2016-11-26T01:56:27.906Z,0
2016-11-26T01:57:27.368Z,0
2016-11-26T01:58:27.372Z,0
2016-11-26T01:59:27.472Z,0
2016-11-26T02:00:27.151Z,0
2016-11-26T02:01:27.138Z,0
2016-11-26T02:02:28.861Z,0
2016-11-26T02:03:27.624Z,0
2016-11-26T02:04:28.080Z,0
2016-11-26T02:05:28.755Z,0
2016-11-26T02:06:27.657Z,0
2016-11-26T02:07:27.619Z,0
2016-11-26T02:08:27.938Z,0
2016-11-26T02:09:27.502Z,0
2016-11-26T02:10:27.229Z,0
2016-11-26T02:11:27.815Z,0
2016-11-26T02:12:27.920Z,0
2016-11-26T02:13:28.334Z,0
2016-11-26T02:14:27.714Z,0
2016-11-26T02:15:28.662Z,0
2016-11-26T02:16:27.913Z,0
2016-11-26T02:17:27.973Z,0
2016-11-26T02:18:28.262Z,0
2016-11-26T02:19:27.934Z,0
2016-11-26T02:20:28.781Z,0
2016-11-26T02:21:27.991Z,0
2016-11-26T02:22:27.531Z,0
2016-11-26T02:23:30.100Z,0
2016-11-26T02:24:28.086Z,0
2016-11-26T02:25:27.781Z,0
2016-11-26T02:26:29.143Z,0
2016-11-26T02:27:28.258Z,0
2016-11-26T02:28:27.431Z,0
2016-11-26T02:29:28.214Z,0
2016-11-26T02:30:28.696Z,0
2016-11-26T02:31:29.130Z,0
2016-11-26T02:32:27.678Z,0
2016-11-26T02:33:27.980Z,0
2016-11-26T02:34:28.648Z,0
2016-11-26T02:35:29.071Z,0
2016-11-26T02:36:29.009Z,0
2016-11-26T02:37:28.875Z,0
2016-11-26T02:38:29.200Z,0
2016-11-26T02:39:27.733Z,0
2016-11-26T02:40:27.505Z,0
2016-11-26T02:41:28.010Z,0
2016-11-26T02:42:28.646Z,0
2016-11-26T02:43:29.207Z,0
2016-11-26T02:44:27.401Z,0
2016-11-26T02:45:27.976Z,0
2016-11-26T02:46:29.741Z,0
2016-11-26T02:47:29.107Z,0
2016-11-26T02:48:27.958Z,0
2016-11-26T02:49:28.474Z,0
2016-11-26T02:50:27.744Z,0
2016-11-26T02:51:27.965Z,0
2016-11-26T02:52:28.708Z,0
2016-11-26T02:53:29.313Z,0
2016-11-26T02:54:28.219Z,0
2016-11-26T02:55:27.917Z,0
2016-11-26T02:56:28.623Z,0
2016-11-26T02:57:28.620Z,0
2016-11-26T02:58:30.812Z,0
2016-11-26T02:59:28.259Z,0
2016-11-26T03:00:27.845Z,0
2016-11-26T03:01:29.360Z,0
2016-11-26T03:02:29.195Z,0
2016-11-26T03:03:28.971Z,0
2016-11-26T03:04:28.864Z,0
2016-11-26T03:05:27.822Z,0
2016-11-26T03:06:29.846Z,0
2016-11-26T03:07:29.367Z,0
2016-11-26T03:08:29.191Z,0
2016-11-26T03:09:28.802Z,0
2016-11-26T03:10:29.166Z,0
2016-11-26T03:11:28.085Z,0
2016-11-26T03:12:28.922Z,0
2016-11-26T03:13:29.312Z,0
2016-11-26T03:14:28.540Z,0
2016-11-26T03:15:28.509Z,0
2016-11-26T03:16:29.616Z,0
2016-11-26T03:17:28.905Z,0
2016-11-26T03:18:28.819Z,0
2016-11-26T03:19:28.158Z,0
2016-11-26T03:20:28.956Z,0
2016-11-26T03:21:28.328Z,0
2016-11-26T03:22:29.420Z,0
2016-11-26T03:23:28.666Z,0
2016-11-26T03:24:29.552Z,0
2016-11-26T03:25:28.305Z,0
2016-11-26T03:26:28.290Z,0
2016-11-26T03:27:28.042Z,0
2016-11-26T03:28:29.000Z,0
2016-11-26T03:29:28.763Z,0
2016-11-26T03:30:29.547Z,0
2016-11-26T03:31:28.804Z,0
2016-11-26T03:32:28.256Z,0
2016-11-26T03:33:29.231Z,0
2016-11-26T03:34:29.341Z,0
2016-11-26T03:35:29.705Z,0
2016-11-26T03:36:30.028Z,0
2016-11-26T03:37:30.058Z,0
2016-11-26T03:38:29.128Z,0
2016-11-26T03:39:30.567Z,0
2016-11-26T03:40:28.282Z,0
2016-11-26T03:41:30.017Z,0
2016-11-26T03:42:28.559Z,0
2016-11-26T03:43:29.036Z,0
2016-11-26T03:44:28.815Z,0
2016-11-26T03:45:28.626Z,0
2016-11-26T03:46:29.194Z,0
2016-11-26T03:47:29.932Z,0
2016-11-26T03:48:29.398Z,0
2016-11-26T03:49:29.721Z,0
2016-11-26T03:50:28.956Z,0
2016-11-26T03:51:29.137Z,0
2016-11-26T03:52:29.066Z,0
2016-11-26T03:53:28.899Z,0
2016-11-26T03:54:28.957Z,0
2016-11-26T03:55:29.468Z,0
2016-11-26T03:56:28.816Z,0
2016-11-26T03:57:29.615Z,0
2016-11-26T03:58:29.850Z,0
2016-11-26T03:59:28.341Z,0
2016-11-26T04:00:29.471Z,0
2016-11-26T04:01:29.398Z,0
2016-11-26T04:02:29.922Z,0
2016-11-26T04:03:29.194Z,0
2016-11-26T04:04:29.505Z,0
2016-11-26T04:05:29.511Z,0
2016-11-26T04:06:29.008Z,0
2016-11-26T04:07:29.751Z,0
2016-11-26T04:08:28.966Z,0
2016-11-26T04:09:29.350Z,0
2016-11-26T04:10:28.712Z,0
2016-11-26T04:11:29.115Z,0
2016-11-26T04:12:30.049Z,0
2016-11-26T04:13:30.507Z,0
2016-11-26T04:14:29.429Z,0
2016-11-26T04:15:29.330Z,0
2016-11-26T04:16:30.248Z,0
2016-11-26T04:17:29.756Z,0
2016-11-26T04:18:29.671Z,0
2016-11-26T04:19:30.047Z,0
2016-11-26T04:20:29.865Z,0
2016-11-26T04:21:28.934Z,0
2016-11-26T04:22:29.250Z,0
2016-11-26T04:23:30.048Z,0
2016-11-26T04:24:28.951Z,0
2016-11-26T04:25:29.019Z,0
2016-11-26T04:26:29.580Z,0
2016-11-26T04:27:30.814Z,0
2016-11-26T04:28:29.917Z,0
2016-11-26T04:29:29.269Z,0
2016-11-26T04:30:30.189Z,0
2016-11-26T04:31:29.669Z,0
2016-11-26T04:32:29.530Z,0
2016-11-26T04:33:29.303Z,0
2016-11-26T04:34:29.626Z,0
2016-11-26T04:35:29.769Z,0
2016-11-26T04:36:30.197Z,0
2016-11-26T04:37:29.811Z,0
2016-11-26T04:38:29.431Z,0
2016-11-26T04:39:29.784Z,0
2016-11-26T04:40:29.189Z,0
2016-11-26T04:41:29.114Z,0
2016-11-26T04:42:29.735Z,0
2016-11-26T04:43:31.359Z,0
2016-11-26T04:44:29.918Z,0
2016-11-26T04:45:29.752Z,0
2016-11-26T04:46:29.378Z,0
2016-11-26T04:47:29.518Z,0
2016-11-26T04:48:29.556Z,0
2016-11-26T04:49:29.847Z,0
2016-11-26T04:50:30.055Z,0
2016-11-26T04:51:29.384Z,0
2016-11-26T04:52:30.599Z,0
2016-11-26T04:53:30.476Z,0
2016-11-26T04:54:30.092Z,0
2016-11-26T04:55:30.165Z,0
2016-11-26T04:56:29.226Z,0
2016-11-26T04:57:29.396Z,0
2016-11-26T04:58:29.994Z,0
2016-11-26T04:59:31.700Z,0
2016-11-26T05:00:29.147Z,0
2016-11-26T05:01:30.002Z,0
2016-11-26T05:02:30.404Z,0
2016-11-26T05:03:30.193Z,0
2016-11-26T05:04:30.515Z,0
2016-11-26T05:05:30.972Z,0
2016-11-26T05:06:31.148Z,0
2016-11-26T05:07:29.314Z,0
2016-11-26T05:08:30.476Z,0
2016-11-26T05:09:30.284Z,0
2016-11-26T05:10:30.031Z,0
2016-11-26T05:11:30.590Z,0
2016-11-26T05:12:31.462Z,0
2016-11-26T05:13:30.571Z,0
2016-11-26T05:14:29.767Z,0
2016-11-26T05:15:29.867Z,0
2016-11-26T05:16:29.851Z,0
2016-11-26T05:17:31.378Z,0
2016-11-26T05:18:30.009Z,0
2016-11-26T05:19:30.936Z,0
2016-11-26T05:20:32.019Z,0
2016-11-26T05:21:31.347Z,0
2016-11-26T05:22:32.513Z,0
2016-11-26T05:23:30.908Z,0
2016-11-26T05:24:30.316Z,0
2016-11-26T05:25:31.084Z,0
2016-11-26T05:26:31.306Z,0
2016-11-26T05:27:30.258Z,0
2016-11-26T05:28:29.704Z,0
2016-11-26T05:29:29.722Z,0
2016-11-26T05:30:31.180Z,0
2016-11-26T05:31:31.430Z,0
2016-11-26T05:32:30.652Z,0
2016-11-26T05:33:30.200Z,0
2016-11-26T05:34:30.052Z,0
2016-11-26T05:35:29.612Z,0
2016-11-26T05:36:31.051Z,0
2016-11-26T05:37:30.151Z,0
2016-11-26T05:38:30.343Z,0
2016-11-26T05:39:30.379Z,0
2016-11-26T05:40:30.960Z,0
2016-11-26T05:41:30.787Z,0
2016-11-26T05:42:30.525Z,0
2016-11-26T05:43:31.095Z,0
2016-11-26T05:44:30.055Z,0
2016-11-26T05:45:29.042Z,0
2016-11-26T05:46:31.089Z,0
2016-11-26T05:47:31.611Z,0
2016-11-26T05:48:30.337Z,0
2016-11-26T05:49:30.967Z,0
2016-11-26T05:50:30.970Z,0
2016-11-26T05:51:31.715Z,0
2016-11-26T05:52:30.414Z,0
2016-11-26T05:53:30.408Z,0
2016-11-26T05:54:31.212Z,0
2016-11-26T05:55:31.920Z,0
2016-11-26T05:56:32.253Z,0
2016-11-26T05:57:32.814Z,0
2016-11-26T05:58:31.753Z,0
2016-11-26T05:59:32.170Z,0
2016-11-26T06:00:31.149Z,0
2016-11-26T06:01:32.415Z,0
2016-11-26T06:02:30.914Z,0
2016-11-26T06:03:32.664Z,0
2016-11-26T06:04:32.565Z,0
2016-11-26T06:05:32.279Z,0
2016-11-26T06:06:32.277Z,0
2016-11-26T06:07:32.446Z,0
2016-11-26T06:08:33.259Z,0
2016-11-26T06:09:31.476Z,0
2016-11-26T06:10:32.607Z,0
2016-11-26T06:11:31.607Z,0
2016-11-26T06:12:31.370Z,0
2016-11-26T06:13:31.012Z,0
2016-11-26T06:14:31.995Z,0
2016-11-26T06:15:32.114Z,0
2016-11-26T06:16:32.133Z,0
2016-11-26T06:17:31.794Z,0
2016-11-26T06:18:31.777Z,0
2016-11-26T06:19:32.360Z,0
2016-11-26T06:20:32.608Z,0
2016-11-26T06:21:30.757Z,0
2016-11-26T06:22:31.603Z,0
2016-11-26T06:23:31.629Z,0
2016-11-26T06:24:32.486Z,0
2016-11-26T06:25:31.797Z,0
2016-11-26T06:26:31.362Z,0
2016-11-26T06:27:32.204Z,0
2016-11-26T06:28:33.271Z,0
2016-11-26T06:29:32.519Z,0
2016-11-26T06:30:33.099Z,0
2016-11-26T06:31:32.148Z,0
2016-11-26T06:32:32.445Z,0
2016-11-26T06:33:31.945Z,0
2016-11-26T06:34:34.071Z,0
2016-11-26T06:35:31.581Z,0
2016-11-26T06:36:30.773Z,0
2016-11-26T06:37:32.145Z,0
2016-11-26T06:38:32.040Z,0
2016-11-26T06:39:33.044Z,0
2016-11-26T06:40:32.087Z,0
2016-11-26T06:41:33.587Z,0
2016-11-26T06:42:31.851Z,0
2016-11-26T06:43:31.483Z,0
2016-11-26T06:44:32.087Z,0
2016-11-26T06:45:32.207Z,0
2016-11-26T06:46:32.470Z,0
2016-11-26T06:47:31.466Z,0
2016-11-26T06:48:32.044Z,0
2016-11-26T06:49:31.625Z,0
2016-11-26T06:50:32.253Z,0
2016-11-26T06:51:32.234Z,0
2016-11-26T06:52:32.137Z,0
2016-11-26T06:53:30.770Z,5
2016-11-26T06:54:32.532Z,5
2016-11-26T06:55:32.885Z,5
2016-11-26T06:56:31.940Z,5
2016-11-26T06:57:31.461Z,5
2016-11-26T06:58:31.547Z,5
2016-11-26T06:59:31.697Z,5
2016-11-26T07:00:32.122Z,5
2016-11-26T07:01:31.880Z,5
2016-11-26T07:02:30.694Z,5
2016-11-26T07:03:31.346Z,10
2016-11-26T07:04:31.280Z,10
2016-11-26T07:05:31.138Z,10
2016-11-26T07:06:31.801Z,10
2016-11-26T07:07:31.989Z,10
2016-11-26T07:08:31.761Z,10
2016-11-26T07:09:31.207Z,10
2016-11-26T07:10:32.135Z,15
2016-11-26T07:11:31.214Z,15
2016-11-26T07:12:32.985Z,15
2016-11-26T07:13:32.094Z,15
2016-11-26T07:14:32.370Z,15
2016-11-26T07:15:31.819Z,20
2016-11-26T07:16:31.880Z,20
2016-11-26T07:17:31.608Z,20
2016-11-26T07:18:32.421Z,20
2016-11-26T07:19:31.448Z,20
2016-11-26T07:20:31.429Z,25
2016-11-26T07:21:32.675Z,25
2016-11-26T07:22:31.961Z,25
2016-11-26T07:23:31.602Z,30
2016-11-26T07:24:30.989Z,30
2016-11-26T07:25:31.998Z,30
2016-11-26T07:26:31.195Z,30
2016-11-26T07:27:31.948Z,35
2016-11-26T07:28:31.890Z,35
2016-11-26T07:29:31.585Z,35
2016-11-26T07:30:32.534Z,35
2016-11-26T07:31:31.453Z,40
2016-11-26T07:32:31.871Z,40
2016-11-26T07:33:32.748Z,40
2016-11-26T07:34:32.170Z,45
2016-11-26T07:35:31.622Z,45
2016-11-26T07:36:33.140Z,45
2016-11-26T07:37:31.899Z,45
2016-11-26T07:38:32.374Z,45
2016-11-26T07:39:31.097Z,50
2016-11-26T07:40:32.506Z,50
2016-11-26T07:41:31.780Z,50
2016-11-26T07:42:32.030Z,50
2016-11-26T07:43:31.742Z,50
2016-11-26T07:44:32.008Z,50
2016-11-26T07:45:33.558Z,50
2016-11-26T07:46:30.916Z,55
2016-11-26T07:47:31.398Z,55
2016-11-26T07:48:31.677Z,60
2016-11-26T07:49:32.657Z,65
2016-11-26T07:50:32.213Z,65
2016-11-26T07:51:31.994Z,65
2016-11-26T07:52:31.965Z,70
2016-11-26T07:53:32.162Z,70
2016-11-26T07:54:32.230Z,75
2016-11-26T07:55:32.125Z,75
2016-11-26T07:56:31.895Z,75
2016-11-26T07:57:31.485Z,80
2016-11-26T07:58:31.405Z,80
2016-11-26T07:59:32.709Z,80
2016-11-26T08:00:32.171Z,80
2016-11-26T08:01:32.684Z,80
2016-11-26T08:02:32.281Z,85
2016-11-26T08:03:32.137Z,85
2016-11-26T08:04:30.889Z,85
2016-11-26T08:05:32.177Z,85
2016-11-26T08:06:31.652Z,85
2016-11-26T08:07:32.175Z,85
2016-11-26T08:08:32.105Z,85
2016-11-26T08:09:32.414Z,90
2016-11-26T08:10:32.818Z,90
2016-11-26T08:11:32.469Z,90
2016-11-26T08:12:32.109Z,90
2016-11-26T08:13:32.133Z,90
2016-11-26T08:14:32.490Z,95
2016-11-26T08:15:32.737Z,95
2016-11-26T08:16:32.681Z,95
2016-11-26T08:17:32.251Z,100
2016-11-26T08:18:33.037Z,95
2016-11-26T08:19:31.801Z,90
2016-11-26T08:20:32.652Z,95
2016-11-26T08:21:32.868Z,95
2016-11-26T08:22:32.626Z,100
2016-11-26T08:23:32.995Z,105
2016-11-26T08:24:32.777Z,100
2016-11-26T08:25:32.904Z,100
2016-11-26T08:26:32.464Z,100
2016-11-26T08:27:32.896Z,100
2016-11-26T08:28:32.459Z,105
2016-11-26T08:29:32.656Z,105
2016-11-26T08:30:32.904Z,105
2016-11-26T08:31:32.081Z,105
2016-11-26T08:32:33.256Z,100
2016-11-26T08:33:33.527Z,100
2016-11-26T08:34:33.065Z,95
2016-11-26T08:35:32.415Z,95
2016-11-26T08:36:32.574Z,95
2016-11-26T08:37:32.277Z,95
2016-11-26T08:38:33.465Z,95
2016-11-26T08:39:32.559Z,90
2016-11-26T08:40:32.880Z,90
2016-11-26T08:41:32.557Z,90
2016-11-26T08:42:32.475Z,85
2016-11-26T08:43:32.475Z,95
2016-11-26T08:44:32.240Z,105
2016-11-26T08:45:32.353Z,110
2016-11-26T08:46:32.851Z,115
2016-11-26T08:47:33.370Z,110
2016-11-26T08:48:33.846Z,105
2016-11-26T08:49:32.191Z,105
2016-11-26T08:50:34.176Z,105
2016-11-26T08:51:32.461Z,105
2016-11-26T08:52:32.107Z,105
2016-11-26T08:53:32.544Z,105
2016-11-26T08:54:32.681Z,105
2016-11-26T08:55:32.299Z,105
2016-11-26T08:56:33.620Z,105
2016-11-26T08:57:32.741Z,105
2016-11-26T08:58:32.651Z,105
2016-11-26T08:59:32.765Z,105
2016-11-26T09:00:32.867Z,105
2016-11-26T09:01:32.754Z,110
2016-11-26T09:02:32.507Z,115
2016-11-26T09:03:33.222Z,120
2016-11-26T09:04:33.144Z,115
2016-11-26T09:05:32.784Z,120
2016-11-26T09:06:33.432Z,130
2016-11-26T09:07:32.751Z,135
2016-11-26T09:08:33.676Z,145
2016-11-26T09:09:33.722Z,145
2016-11-26T09:10:33.091Z,145
2016-11-26T09:11:32.669Z,155
2016-11-26T09:12:32.646Z,150
2016-11-26T09:13:32.617Z,150
2016-11-26T09:14:33.217Z,160
2016-11-26T09:15:34.028Z,160
2016-11-26T09:16:33.033Z,160
2016-11-26T09:17:33.832Z,155
2016-11-26T09:18:33.097Z,155
2016-11-26T09:19:32.556Z,155
2016-11-26T09:20:33.727Z,155
2016-11-26T09:21:32.735Z,155
2016-11-26T09:22:32.881Z,155
2016-11-26T09:23:33.094Z,155
2016-11-26T09:24:33.475Z,150
2016-11-26T09:25:32.343Z,150
2016-11-26T09:26:33.327Z,145
2016-11-26T09:27:33.283Z,140
2016-11-26T09:28:33.857Z,135
2016-11-26T09:29:33.038Z,140
2016-11-26T09:30:32.939Z,140
2016-11-26T09:31:34.068Z,145
2016-11-26T09:32:32.877Z,145
2016-11-26T09:33:32.626Z,145
2016-11-26T09:34:32.899Z,150
2016-11-26T09:35:32.652Z,155
2016-11-26T09:36:33.413Z,160
2016-11-26T09:37:33.941Z,165
2016-11-26T09:38:32.832Z,170
2016-11-26T09:39:34.042Z,180
2016-11-26T09:40:33.794Z,185
2016-11-26T09:41:35.045Z,195
2016-11-26T09:42:33.580Z,200
2016-11-26T09:43:33.770Z,210
2016-11-26T09:44:33.303Z,215
2016-11-26T09:45:33.925Z,225
2016-11-26T09:46:34.059Z,230
2016-11-26T09:47:33.245Z,245
2016-11-26T09:48:33.846Z,255
2016-11-26T09:49:33.465Z,270
2016-11-26T09:50:33.314Z,275
2016-11-26T09:51:33.189Z,280
2016-11-26T09:52:33.490Z,285
2016-11-26T09:53:32.985Z,285
2016-11-26T09:54:33.257Z,280
2016-11-26T09:55:33.974Z,280
2016-11-26T09:56:33.644Z,285
2016-11-26T09:57:32.910Z,285
2016-11-26T09:58:32.714Z,290
2016-11-26T09:59:33.114Z,285
2016-11-26T10:00:34.129Z,280
2016-11-26T10:01:32.721Z,270
2016-11-26T10:02:33.491Z,270
2016-11-26T10:03:33.341Z,270
2016-11-26T10:04:34.574Z,265
2016-11-26T10:05:33.467Z,250
2016-11-26T10:06:34.212Z,235
2016-11-26T10:07:33.127Z,225
2016-11-26T10:08:33.517Z,220
2016-11-26T10:09:34.188Z,230
2016-11-26T10:10:32.997Z,245
2016-11-26T10:11:33.267Z,245
2016-11-26T10:12:32.831Z,245
2016-11-26T10:13:34.064Z,235
2016-11-26T10:14:33.145Z,230
2016-11-26T10:15:33.923Z,235
2016-11-26T10:16:33.024Z,235
2016-11-26T10:17:34.586Z,240
2016-11-26T10:18:34.654Z,245
2016-11-26T10:19:33.928Z,250
2016-11-26T10:20:33.418Z,255
2016-11-26T10:21:33.697Z,265
2016-11-26T10:22:34.895Z,265
2016-11-26T10:23:34.648Z,265
2016-11-26T10:24:33.683Z,265
2016-11-26T10:25:33.510Z,275
2016-11-26T10:26:33.869Z,285
2016-11-26T10:27:33.838Z,290
2016-11-26T10:28:34.320Z,295
2016-11-26T10:29:33.246Z,305
2016-11-26T10:30:35.236Z,315
2016-11-26T10:31:34.551Z,315
2016-11-26T10:32:34.239Z,320
2016-11-26T10:33:34.109Z,320
2016-11-26T10:34:35.357Z,320
2016-11-26T10:35:34.145Z,335
2016-11-26T10:36:33.711Z,350
2016-11-26T10:37:34.579Z,365
2016-11-26T10:38:33.102Z,370
2016-11-26T10:39:35.268Z,365
2016-11-26T10:40:35.099Z,350
2016-11-26T10:41:34.182Z,340
2016-11-26T10:42:33.600Z,330
2016-11-26T10:43:33.526Z,325
2016-11-26T10:44:34.035Z,315
2016-11-26T10:45:34.088Z,315
2016-11-26T10:46:34.022Z,320
2016-11-26T10:47:34.233Z,325
2016-11-26T10:48:35.214Z,340
2016-11-26T10:49:35.184Z,365
2016-11-26T10:50:35.008Z,375
2016-11-26T10:51:34.435Z,380
2016-11-26T10:52:34.863Z,370
2016-11-26T10:53:35.014Z,370
2016-11-26T10:54:34.883Z,380
2016-11-26T10:55:34.175Z,380
2016-11-26T10:56:35.212Z,380
2016-11-26T10:57:33.742Z,375
2016-11-26T10:58:34.979Z,375
2016-11-26T10:59:34.311Z,360
2016-11-26T11:00:36.238Z,370
2016-11-26T11:01:34.679Z,380
2016-11-26T11:02:34.247Z,370
2016-11-26T11:03:34.026Z,360
2016-11-26T11:04:33.678Z,360
2016-11-26T11:05:34.600Z,360
2016-11-26T11:06:35.708Z,340
2016-11-26T11:07:33.932Z,335
2016-11-26T11:08:34.883Z,340
2016-11-26T11:09:36.006Z,350
2016-11-26T11:10:34.653Z,350
2016-11-26T11:11:34.382Z,330
2016-11-26T11:12:35.557Z,310
2016-11-26T11:13:33.985Z,310
2016-11-26T11:14:34.802Z,310
2016-11-26T11:15:35.123Z,315
2016-11-26T11:16:34.354Z,305
2016-11-26T11:17:34.861Z,300
2016-11-26T11:18:35.081Z,290
2016-11-26T11:19:36.129Z,290
2016-11-26T11:20:33.918Z,305
2016-11-26T11:21:34.837Z,300
2016-11-26T11:22:35.400Z,285
2016-11-26T11:23:35.676Z,270
2016-11-26T11:24:35.393Z,280
2016-11-26T11:25:35.179Z,275
2016-11-26T11:26:33.770Z,270
2016-11-26T11:27:35.075Z,270
2016-11-26T11:28:35.270Z,265
2016-11-26T11:29:34.311Z,265
2016-11-26T11:30:35.128Z,255
2016-11-26T11:31:34.798Z,260
2016-11-26T11:32:36.141Z,260
2016-11-26T11:33:33.843Z,260
2016-11-26T11:34:36.205Z,255
2016-11-26T11:35:34.414Z,255
2016-11-26T11:36:35.720Z,255
2016-11-26T11:37:35.947Z,260
2016-11-26T11:38:36.152Z,270
2016-11-26T11:39:35.076Z,275
2016-11-26T11:40:35.593Z,280
2016-11-26T11:41:35.426Z,280
2016-11-26T11:42:36.195Z,290
2016-11-26T11:43:35.464Z,285
2016-11-26T11:44:35.783Z,285
2016-11-26T11:45:35.236Z,285
2016-11-26T11:46:34.758Z,280
2016-11-26T11:47:34.614Z,275
2016-11-26T11:48:35.818Z,275
2016-11-26T11:49:35.039Z,285
2016-11-26T11:50:35.635Z,295
2016-11-26T11:51:35.168Z,305
2016-11-26T11:52:35.981Z,305
2016-11-26T11:53:35.356Z,300
2016-11-26T11:54:35.566Z,290
2016-11-26T11:55:34.971Z,275
2016-11-26T11:56:35.160Z,270
2016-11-26T11:57:34.444Z,275
2016-11-26T11:58:35.955Z,285
2016-11-26T11:59:35.639Z,295
2016-11-26T12:00:35.466Z,305
2016-11-26T12:01:35.223Z,305
2016-11-26T12:02:35.019Z,315
2016-11-26T12:03:36.099Z,325
2016-11-26T12:04:35.375Z,325
2016-11-26T12:05:35.851Z,325
2016-11-26T12:06:35.344Z,325
2016-11-26T12:07:34.984Z,320
2016-11-26T12:08:35.351Z,325
2016-11-26T12:09:35.467Z,335
2016-11-26T12:10:35.211Z,335
2016-11-26T12:11:35.544Z,330
2016-11-26T12:12:36.063Z,315
2016-11-26T12:13:35.258Z,310
2016-11-26T12:14:35.662Z,295
2016-11-26T12:15:36.617Z,285
2016-11-26T12:16:34.963Z,285
2016-11-26T12:17:35.282Z,275
2016-11-26T12:18:35.574Z,275
2016-11-26T12:19:35.115Z,270
2016-11-26T12:20:34.852Z,265
2016-11-26T12:21:35.778Z,255
2016-11-26T12:22:37.348Z,250
2016-11-26T12:23:36.186Z,250
2016-11-26T12:24:35.197Z,245
2016-11-26T12:25:34.991Z,245
2016-11-26T12:26:35.358Z,240
2016-11-26T12:27:35.650Z,230
2016-11-26T12:28:36.014Z,225
2016-11-26T12:29:36.006Z,220
2016-11-26T12:30:36.230Z,220
2016-11-26T12:31:35.138Z,215
2016-11-26T12:32:36.856Z,215
2016-11-26T12:33:35.703Z,210
2016-11-26T12:34:35.828Z,210
2016-11-26T12:35:36.660Z,215
2016-11-26T12:36:35.037Z,215
2016-11-26T12:37:36.012Z,220
2016-11-26T12:38:35.878Z,215
2016-11-26T12:39:36.026Z,205
2016-11-26T12:40:35.071Z,185
2016-11-26T12:41:35.473Z,180
2016-11-26T12:42:35.726Z,185
2016-11-26T12:43:37.162Z,180
2016-11-26T12:44:37.062Z,175
2016-11-26T12:45:37.797Z,170
2016-11-26T12:46:35.420Z,170
2016-11-26T12:47:36.552Z,170
2016-11-26T12:48:35.890Z,175
2016-11-26T12:49:36.004Z,170
2016-11-26T12:50:35.955Z,170
2016-11-26T12:51:35.884Z,170
2016-11-26T12:52:35.229Z,170
2016-11-26T12:53:35.954Z,170
2016-11-26T12:54:35.926Z,165
2016-11-26T12:55:36.716Z,160
2016-11-26T12:56:35.855Z,155
2016-11-26T12:57:36.509Z,150
2016-11-26T12:58:36.286Z,150
2016-11-26T12:59:36.635Z,160
2016-11-26T13:00:35.628Z,165
2016-11-26T13:01:35.973Z,175
2016-11-26T13:02:35.997Z,180
2016-11-26T13:03:36.402Z,195
2016-11-26T13:04:36.174Z,200
2016-11-26T13:05:37.434Z,200
2016-11-26T13:06:36.202Z,200
2016-11-26T13:07:36.813Z,200
2016-11-26T13:08:36.916Z,200
2016-11-26T13:09:35.950Z,200
2016-11-26T13:10:37.231Z,190
2016-11-26T13:11:35.055Z,185
2016-11-26T13:12:37.535Z,180
2016-11-26T13:13:36.795Z,180
2016-11-26T13:14:36.686Z,180
2016-11-26T13:15:36.024Z,180
2016-11-26T13:16:36.329Z,175
2016-11-26T13:17:36.444Z,170
2016-11-26T13:18:35.498Z,165
2016-11-26T13:19:37.475Z,160
2016-11-26T13:20:37.090Z,155
2016-11-26T13:21:36.223Z,150
2016-11-26T13:22:38.015Z,150
2016-11-26T13:23:36.404Z,145
2016-11-26T13:24:37.043Z,140
2016-11-26T13:25:37.207Z,140
2016-11-26T13:26:38.007Z,140
2016-11-26T13:27:37.673Z,130
2016-11-26T13:28:37.253Z,120
2016-11-26T13:29:36.203Z,115
2016-11-26T13:30:36.907Z,110
2016-11-26T13:31:36.849Z,110
2016-11-26T13:32:36.102Z,110
2016-11-26T13:33:37.458Z,110
2016-11-26T13:34:37.067Z,110
2016-11-26T13:35:37.000Z,105
2016-11-26T13:36:36.199Z,100
2016-11-26T13:37:35.225Z,100
2016-11-26T13:38:35.865Z,95
2016-11-26T13:39:37.480Z,95
2016-11-26T13:40:36.656Z,95
2016-11-26T13:41:36.514Z,90
2016-11-26T13:42:37.032Z,95
2016-11-26T13:43:36.609Z,95
2016-11-26T13:44:37.471Z,95
2016-11-26T13:45:39.393Z,95
2016-11-26T13:46:36.755Z,100
2016-11-26T13:47:37.399Z,100
2016-11-26T13:48:36.903Z,100
2016-11-26T13:49:36.880Z,100
2016-11-26T13:50:36.733Z,100
2016-11-26T13:51:37.023Z,100
2016-11-26T13:52:35.925Z,100
2016-11-26T13:53:36.465Z,100
2016-11-26T13:54:36.919Z,95
2016-11-26T13:55:36.453Z,95
2016-11-26T13:56:36.925Z,90
2016-11-26T13:57:37.813Z,90
2016-11-26T13:58:37.641Z,85
2016-11-26T13:59:37.630Z,80
2016-11-26T14:00:36.000Z,75
2016-11-26T14:01:38.256Z,75
2016-11-26T14:02:37.196Z,75
2016-11-26T14:03:37.540Z,75
2016-11-26T14:04:37.342Z,70
2016-11-26T14:05:36.924Z,70
2016-11-26T14:06:37.974Z,70
2016-11-26T14:07:37.308Z,70
2016-11-26T14:08:37.064Z,70
2016-11-26T14:09:36.088Z,65
2016-11-26T14:10:36.838Z,65
2016-11-26T14:11:37.405Z,60
2016-11-26T14:12:36.793Z,60
2016-11-26T14:13:36.775Z,60
2016-11-26T14:14:37.447Z,60
2016-11-26T14:15:36.996Z,55
2016-11-26T14:16:36.650Z,55
2016-11-26T14:17:36.838Z,55
2016-11-26T14:18:36.866Z,50
2016-11-26T14:19:38.598Z,50